Time;durP1;ratioP1;P1;durP2;ratioP2;P2;SDS_P1;SDS_P2;PMS_P1;PMS_P2;Temp;Humidity;BMP_temperature;BMP_pressure;BME280_temperature;BME280_humidity;BME280_pressure;Samples;Min_cycle;Max_cycle;Signal;HPM_P1;HPM_P2
2021/04/17 00:01:57;;;;;;;6.10;3.25;;;7.00;68.20;;;;;;5013343;28;20101;-58
2021/04/17 00:04:24;;;;;;;6.95;3.08;;;7.00;68.00;;;;;;5012262;28;20528;-55
2021/04/17 00:06:50;;;;;;;5.93;3.08;;;6.80;68.40;;;;;;5036992;28;20041;-56
2021/04/17 00:09:19;;;;;;;5.88;3.05;;;6.80;68.50;;;;;;5011528;28;20049;-57
2021/04/17 00:11:46;;;;;;;4.57;3.00;;;6.90;68.60;;;;;;5037684;28;20026;-53
2021/04/17 00:14:22;;;;;;;6.18;3.10;;;6.90;68.80;;;;;;5025850;28;20025;-56
2021/04/17 00:16:49;;;;;;;8.57;3.33;;;6.90;68.80;;;;;;5016860;28;20436;-59
2021/04/17 00:19:15;;;;;;;7.60;3.30;;;7.00;68.70;;;;;;5025136;28;20052;-58
2021/04/17 00:21:40;;;;;;;8.45;3.33;;;6.90;68.80;;;;;;5029665;28;20529;-57
2021/04/17 00:24:07;;;;;;;5.97;2.88;;;6.90;69.00;;;;;;5011879;28;20474;-58
2021/04/17 00:26:34;;;;;;;5.78;3.28;;;6.90;69.20;;;;;;5021790;28;20041;-56
2021/04/17 00:29:01;;;;;;;5.22;3.30;;;6.90;69.10;;;;;;5015427;28;20110;-57
2021/04/17 00:31:26;;;;;;;6.55;3.05;;;6.90;69.20;;;;;;5019877;28;20052;-59
2021/04/17 00:33:52;;;;;;;6.43;2.92;;;6.80;69.50;;;;;;5030037;28;20488;-58
2021/04/17 00:36:18;;;;;;;7.55;3.70;;;6.90;69.60;;;;;;5011812;28;20041;-58
2021/04/17 00:38:43;;;;;;;5.25;2.95;;;6.80;69.70;;;;;;5021678;28;20489;-56
2021/04/17 00:41:09;;;;;;;6.72;3.10;;;6.80;69.60;;;;;;5014757;28;20034;-54
2021/04/17 00:43:34;;;;;;;5.13;2.80;;;6.70;69.90;;;;;;5017025;28;20044;-57
2021/04/17 00:46:00;;;;;;;5.28;3.13;;;6.70;69.60;;;;;;5019371;28;20026;-56
2021/04/17 00:48:26;;;;;;;6.22;3.10;;;6.70;69.90;;;;;;5013512;28;20042;-56
2021/04/17 00:50:52;;;;;;;6.95;2.95;;;6.70;69.70;;;;;;5023262;28;20026;-53
2021/04/17 00:53:18;;;;;;;5.25;2.78;;;6.70;69.70;;;;;;5017590;28;20030;-57
2021/04/17 00:55:44;;;;;;;3.40;2.38;;;6.70;69.50;;;;;;5025871;28;20397;-53
2021/04/17 00:58:10;;;;;;;6.00;3.30;;;6.70;69.50;;;;;;5023968;28;20036;-57
2021/04/17 01:00:37;;;;;;;6.72;3.03;;;6.70;69.50;;;;;;5015575;28;20026;-56
2021/04/17 01:03:11;;;;;;;4.97;2.88;;;6.70;69.20;;;;;;5020746;28;20089;-56
2021/04/17 01:05:39;;;;;;;8.20;3.35;;;6.70;68.90;;;;;;5017076;28;20124;-54
2021/04/17 01:08:11;;;;;;;4.20;2.75;;;6.60;69.30;;;;;;5016409;28;20046;-57
2021/04/17 01:10:45;;;;;;;6.05;3.22;;;6.60;69.30;;;;;;5041884;28;20025;-56
2021/04/17 01:13:11;;;;;;;5.68;3.25;;;6.60;69.70;;;;;;5043571;28;20385;-56
2021/04/17 01:15:39;;;;;;;4.28;2.90;;;6.60;70.10;;;;;;5019319;28;20041;-58
2021/04/17 01:18:06;;;;;;;5.07;2.85;;;6.60;69.60;;;;;;5026098;28;20038;-55
2021/04/17 01:20:55;;;;;;;4.50;2.75;;;6.60;69.60;;;;;;5034909;28;20034;-58
2021/04/17 01:23:30;;;;;;;4.78;2.60;;;6.70;69.40;;;;;;5019401;28;20045;-56
2021/04/17 01:26:09;;;;;;;7.72;2.55;;;6.40;70.30;;;;;;5020570;28;20038;-59
2021/04/17 01:28:37;;;;;;;4.90;2.70;;;6.30;70.20;;;;;;5017956;28;20048;-57
2021/04/17 01:31:05;;;;;;;5.53;2.80;;;6.50;70.10;;;;;;5027039;28;20055;-58
2021/04/17 01:33:33;;;;;;;5.03;2.63;;;6.50;69.50;;;;;;5023289;28;20116;-55
2021/04/17 01:36:01;;;;;;;5.05;2.88;;;6.60;69.60;;;;;;5017130;28;20164;-56
2021/04/17 01:38:46;;;;;;;5.40;3.22;;;6.60;69.40;;;;;;5032672;28;20052;-56
2021/04/17 01:41:18;;;;;;;6.82;2.80;;;6.60;69.60;;;;;;5016851;28;20498;-58
2021/04/17 01:43:48;;;;;;;8.15;2.90;;;6.40;70.20;;;;;;5036169;28;20045;-53
2021/04/17 01:46:22;;;;;;;6.00;3.33;;;6.20;70.90;;;;;;5020746;28;20112;-58
2021/04/17 01:48:52;;;;;;;5.43;2.88;;;5.90;72.20;;;;;;5031215;28;20033;-58
2021/04/17 01:51:18;;;;;;;6.28;3.50;;;6.00;72.60;;;;;;5032266;28;20046;-58
2021/04/17 01:53:45;;;;;;;4.13;2.90;;;6.00;72.20;;;;;;5019556;28;20040;-58
2021/04/17 01:56:13;;;;;;;7.25;3.40;;;6.20;71.40;;;;;;5047580;28;20059;-58
2021/04/17 01:58:41;;;;;;;5.72;2.97;;;6.30;70.80;;;;;;5024600;28;20419;-59
2021/04/17 02:01:07;;;;;;;6.10;3.00;;;6.30;71.00;;;;;;5020018;28;20736;-58
2021/04/17 02:03:33;;;;;;;6.55;3.72;;;6.40;70.90;;;;;;5032683;28;20029;-57
2021/04/17 02:05:59;;;;;;;6.82;3.45;;;6.30;71.30;;;;;;5032966;28;20064;-59
2021/04/17 02:08:24;;;;;;;6.25;3.30;;;6.40;70.90;;;;;;5020423;28;20034;-58
2021/04/17 02:10:51;;;;;;;7.50;3.53;;;6.40;71.00;;;;;;5032182;28;20375;-57
2021/04/17 02:13:18;;;;;;;6.72;3.60;;;6.40;71.00;;;;;;5033380;28;20436;-58
2021/04/17 02:15:44;;;;;;;6.28;3.58;;;6.30;71.20;;;;;;5013900;28;20033;-58
2021/04/17 02:18:23;;;;;;;6.55;3.50;;;6.30;71.40;;;;;;5024536;28;20094;-55
2021/04/17 02:21:19;;;;;;;6.43;3.40;;;6.30;71.50;;;;;;5029622;28;20555;-58
2021/04/17 02:23:46;;;;;;;6.20;3.20;;;6.40;71.50;;;;;;5013878;28;20579;-56
2021/04/17 02:26:11;;;;;;;6.75;3.70;;;6.50;71.60;;;;;;5025205;28;20121;-58
2021/04/17 02:28:37;;;;;;;6.75;3.78;;;6.40;71.80;;;;;;5020287;28;20117;-55
2021/04/17 02:31:03;;;;;;;9.00;4.20;;;6.30;72.10;;;;;;5017731;28;20021;-59
2021/04/17 02:33:29;;;;;;;7.22;3.90;;;6.30;72.00;;;;;;5028605;28;20028;-57
2021/04/17 02:35:55;;;;;;;10.07;4.32;;;6.20;72.80;;;;;;5015922;28;20188;-58
2021/04/17 02:38:21;;;;;;;9.02;3.95;;;6.20;72.90;;;;;;5049990;28;20084;-55
2021/04/17 02:40:47;;;;;;;6.65;4.18;;;6.40;72.50;;;;;;5020198;28;20041;-56
2021/04/17 02:43:12;;;;;;;7.60;3.80;;;6.40;72.40;;;;;;5045793;28;20439;-56
2021/04/17 02:45:38;;;;;;;7.97;4.20;;;6.30;72.60;;;;;;5015328;28;20041;-57
2021/04/17 02:48:04;;;;;;;6.57;3.90;;;6.40;72.90;;;;;;5017571;28;20061;-56
2021/04/17 02:50:30;;;;;;;6.22;4.00;;;6.20;72.40;;;;;;5021619;28;20041;-57
2021/04/17 02:52:55;;;;;;;5.85;4.20;;;6.10;72.90;;;;;;5034560;28;20038;-56
2021/04/17 02:55:21;;;;;;;5.15;3.40;;;6.10;73.10;;;;;;5051873;28;20044;-57
2021/04/17 02:57:47;;;;;;;6.85;3.70;;;6.10;73.30;;;;;;5022368;28;20026;-56
2021/04/17 03:00:16;;;;;;;7.68;4.10;;;6.00;74.40;;;;;;5051179;28;20041;-56
2021/04/17 03:02:41;;;;;;;5.75;3.33;;;6.00;74.70;;;;;;5020873;28;20025;-56
2021/04/17 03:05:08;;;;;;;8.88;3.70;;;5.90;76.00;;;;;;5012091;28;20481;-58
2021/04/17 03:07:34;;;;;;;6.30;3.78;;;5.90;76.40;;;;;;5016965;28;20033;-56
2021/04/17 03:09:59;;;;;;;6.25;3.70;;;5.90;76.90;;;;;;5019314;28;20021;-56
2021/04/17 03:12:25;;;;;;;5.85;3.35;;;5.90;77.50;;;;;;5033656;28;20058;-55
2021/04/17 03:14:51;;;;;;;6.80;2.97;;;6.00;78.20;;;;;;5036282;28;20404;-56
2021/04/17 03:17:16;;;;;;;5.55;3.20;;;5.90;78.50;;;;;;5019133;28;20029;-59
2021/04/17 03:19:42;;;;;;;3.70;2.90;;;5.80;80.20;;;;;;5030386;28;20439;-57
2021/04/17 03:22:08;;;;;;;4.03;3.20;;;5.60;81.90;;;;;;5024219;28;20037;-55
2021/04/17 03:24:35;;;;;;;4.53;3.25;;;5.50;82.80;;;;;;5018245;28;20148;-57
2021/04/17 03:27:05;;;;;;;4.25;3.17;;;5.50;83.50;;;;;;5017000;28;20025;-57
2021/04/17 03:29:31;;;;;;;5.00;3.05;;;5.50;83.30;;;;;;5018423;28;20045;-58
2021/04/17 03:31:57;;;;;;;6.07;3.78;;;5.60;83.20;;;;;;5027751;28;20028;-57
2021/04/17 03:34:23;;;;;;;5.10;3.22;;;5.60;83.20;;;;;;5015685;28;20058;-58
2021/04/17 03:36:49;;;;;;;6.68;3.30;;;5.70;82.90;;;;;;5015639;28;20160;-59
2021/04/17 03:39:15;;;;;;;8.00;3.50;;;5.70;83.00;;;;;;5019133;28;20064;-58
2021/04/17 03:41:41;;;;;;;5.05;3.10;;;5.80;83.10;;;;;;5012340;28;20074;-56
2021/04/17 03:44:06;;;;;;;11.15;3.50;;;5.70;82.30;;;;;;5022885;28;20117;-52
2021/04/17 03:46:32;;;;;;;5.80;4.05;;;5.80;82.50;;;;;;5019322;28;20489;-54
2021/04/17 03:48:58;;;;;;;5.32;3.28;;;5.90;82.90;;;;;;5023311;28;20064;-58
2021/04/17 03:51:24;;;;;;;7.10;3.30;;;5.80;82.90;;;;;;5026431;28;20045;-55
2021/04/17 03:53:49;;;;;;;6.90;3.92;;;5.80;82.80;;;;;;5030948;28;20033;-58
2021/04/17 03:56:15;;;;;;;6.35;3.80;;;5.80;82.60;;;;;;5017756;28;20371;-55
2021/04/17 03:58:41;;;;;;;7.63;3.10;;;5.90;82.70;;;;;;5033555;28;20049;-52
2021/04/17 04:01:07;;;;;;;6.43;3.72;;;5.90;82.40;;;;;;5045104;28;20074;-57
2021/04/17 04:03:33;;;;;;;9.32;3.67;;;5.90;82.80;;;;;;5035944;28;20079;-58
2021/04/17 04:05:59;;;;;;;6.30;3.00;;;5.90;82.30;;;;;;5011931;28;20038;-55
2021/04/17 04:08:25;;;;;;;5.57;3.35;;;5.90;82.60;;;;;;5034175;28;20041;-55
2021/04/17 04:10:51;;;;;;;5.15;3.17;;;5.90;82.20;;;;;;5023023;28;20087;-55
2021/04/17 04:13:17;;;;;;;6.72;3.88;;;6.00;82.20;;;;;;5018587;28;20070;-54
2021/04/17 04:15:42;;;;;;;4.65;3.15;;;6.00;82.50;;;;;;5025485;28;20092;-57
2021/04/17 04:18:08;;;;;;;4.53;3.35;;;5.90;82.90;;;;;;5021276;28;20057;-56
2021/04/17 04:20:34;;;;;;;4.72;3.15;;;5.90;83.20;;;;;;5046557;28;20438;-56
2021/04/17 04:23:00;;;;;;;4.93;3.30;;;5.80;83.40;;;;;;5022725;28;20061;-55
2021/04/17 04:25:26;;;;;;;4.40;3.30;;;5.90;83.00;;;;;;5031428;28;20087;-57
2021/04/17 04:27:52;;;;;;;6.72;3.10;;;6.10;89.20;;;;;;5024628;28;20030;-51
2021/04/17 04:30:19;;;;;;;6.72;3.42;;;6.30;83.10;;;;;;5011577;28;20030;-57
2021/04/17 04:32:44;;;;;;;4.78;3.50;;;5.90;83.50;;;;;;5036434;28;20030;-56
2021/04/17 04:35:11;;;;;;;7.50;3.20;;;5.80;83.90;;;;;;5024586;28;20603;-55
2021/04/17 04:37:36;;;;;;;8.48;3.55;;;5.80;84.30;;;;;;5029341;28;20544;-58
2021/04/17 04:40:04;;;;;;;5.38;3.92;;;5.80;84.30;;;;;;5015581;28;20104;-58
2021/04/17 04:42:30;;;;;;;6.55;3.22;;;5.90;84.10;;;;;;5032904;28;20041;-57
2021/04/17 04:44:56;;;;;;;7.97;3.35;;;5.90;83.50;;;;;;5036289;28;20044;-56
2021/04/17 04:47:21;;;;;;;6.75;3.45;;;5.90;84.10;;;;;;5015791;28;20068;-59
2021/04/17 04:49:47;;;;;;;6.40;3.35;;;5.70;84.60;;;;;;5055023;28;20032;-57
2021/04/17 04:52:12;;;;;;;7.93;4.13;;;5.70;84.90;;;;;;5036038;28;20040;-57
2021/04/17 04:54:38;;;;;;;4.85;3.20;;;5.80;83.90;;;;;;5028164;28;20371;-58
2021/04/17 04:57:04;;;;;;;6.88;3.92;;;5.80;84.50;;;;;;5018479;28;20021;-58
2021/04/17 04:59:29;;;;;;;8.32;3.85;;;5.60;84.90;;;;;;5029479;28;20045;-54
2021/04/17 05:01:55;;;;;;;6.38;3.78;;;5.70;84.90;;;;;;5018307;28;20500;-56
2021/04/17 05:04:20;;;;;;;6.38;4.00;;;5.70;84.60;;;;;;5047596;28;20038;-59
2021/04/17 05:06:46;;;;;;;6.88;3.97;;;5.70;85.30;;;;;;5039358;28;20098;-55
2021/04/17 05:09:12;;;;;;;7.80;4.00;;;5.60;85.30;;;;;;5020881;28;20037;-55
2021/04/17 05:11:37;;;;;;;5.93;3.47;;;5.70;84.80;;;;;;5032065;28;20033;-58
2021/04/17 05:14:03;;;;;;;7.35;4.30;;;5.60;84.90;;;;;;5032002;28;20034;-57
2021/04/17 05:16:29;;;;;;;7.55;4.20;;;5.50;85.20;;;;;;5017843;28;20060;-57
2021/04/17 05:18:54;;;;;;;6.65;4.18;;;5.60;84.70;;;;;;5028224;28;20085;-58
2021/04/17 05:21:20;;;;;;;6.72;4.18;;;5.70;84.60;;;;;;5034341;28;20045;-56
2021/04/17 05:23:45;;;;;;;8.77;5.20;;;5.70;84.50;;;;;;5017259;28;20037;-55
2021/04/17 05:26:11;;;;;;;10.15;5.07;;;5.70;84.70;;;;;;5027851;28;20029;-56
2021/04/17 05:28:37;;;;;;;8.85;5.13;;;5.70;84.30;;;;;;5008391;28;20087;-58
2021/04/17 05:31:02;;;;;;;7.18;4.47;;;5.60;85.10;;;;;;5023008;28;20061;-57
2021/04/17 05:33:28;;;;;;;7.72;4.57;;;5.80;84.40;;;;;;5032564;28;20026;-61
2021/04/17 05:35:53;;;;;;;10.60;4.78;;;5.60;85.60;;;;;;5029764;28;20482;-56
2021/04/17 05:38:19;;;;;;;9.68;5.00;;;5.50;86.30;;;;;;5014402;28;20567;-57
2021/04/17 05:40:45;;;;;;;9.48;5.60;;;5.50;85.70;;;;;;5025689;28;20044;-60
2021/04/17 05:43:11;;;;;;;8.07;4.50;;;5.60;86.10;;;;;;5021234;28;20176;-58
2021/04/17 05:45:36;;;;;;;7.95;5.00;;;5.70;85.40;;;;;;5041234;28;20045;-60
2021/04/17 05:48:02;;;;;;;5.97;4.40;;;5.70;85.10;;;;;;5030988;28;20399;-59
2021/04/17 05:50:27;;;;;;;8.82;4.63;;;5.90;84.80;;;;;;5020575;28;20030;-58
2021/04/17 05:52:53;;;;;;;7.50;4.43;;;5.90;84.80;;;;;;5028114;28;20037;-59
2021/04/17 05:55:19;;;;;;;8.00;4.88;;;5.80;85.20;;;;;;5023705;28;20037;-59
2021/04/17 05:57:44;;;;;;;6.75;4.45;;;5.90;84.20;;;;;;5034076;28;20374;-57
2021/04/17 06:00:11;;;;;;;10.65;4.50;;;5.90;84.30;;;;;;5026550;28;20052;-59
2021/04/17 06:02:37;;;;;;;6.30;4.20;;;5.80;84.80;;;;;;5016486;28;20048;-55
2021/04/17 06:05:03;;;;;;;11.00;4.78;;;5.80;85.70;;;;;;5024738;28;20029;-59
2021/04/17 06:07:29;;;;;;;7.50;4.22;;;5.90;85.40;;;;;;5038874;28;20041;-59
2021/04/17 06:09:54;;;;;;;6.50;4.55;;;6.00;84.50;;;;;;5023868;28;20049;-59
2021/04/17 06:12:20;;;;;;;9.38;4.25;;;5.80;85.40;;;;;;5054426;28;20082;-56
2021/04/17 06:14:45;;;;;;;7.80;4.68;;;5.70;86.00;;;;;;5026089;28;20080;-55
2021/04/17 06:17:11;;;;;;;7.25;4.53;;;5.90;85.40;;;;;;5015077;28;20061;-56
2021/04/17 06:19:36;;;;;;;8.75;4.80;;;5.90;85.20;;;;;;5023253;28;20100;-57
2021/04/17 06:22:03;;;;;;;10.00;4.63;;;6.10;84.30;;;;;;5027843;28;20025;-59
2021/04/17 06:24:28;;;;;;;7.72;4.10;;;6.20;84.50;;;;;;5026469;28;20046;-55
2021/04/17 06:26:54;;;;;;;9.82;5.07;;;6.00;84.60;;;;;;5032061;28;20047;-56
2021/04/17 06:29:20;;;;;;;8.52;4.10;;;6.10;84.80;;;;;;5030518;28;20076;-59
2021/04/17 06:31:46;;;;;;;8.65;4.50;;;6.10;84.20;;;;;;5030970;28;20037;-57
2021/04/17 06:34:12;;;;;;;7.60;4.30;;;6.20;84.00;;;;;;5030148;28;20028;-58
2021/04/17 06:36:37;;;;;;;9.57;4.90;;;6.10;84.60;;;;;;5045369;28;20038;-59
2021/04/17 06:39:08;;;;;;;5.63;4.18;;;5.90;85.00;;;;;;5028927;28;20566;-57
2021/04/17 06:41:35;;;;;;;8.18;4.05;;;6.00;85.80;;;;;;5033755;28;20034;-58
2021/04/17 06:44:05;;;;;;;10.25;4.20;;;6.10;85.50;;;;;;5034057;28;20037;-56
2021/04/17 06:46:32;;;;;;;9.93;5.30;;;6.30;84.50;;;;;;5034714;28;20036;-58
2021/04/17 06:49:02;;;;;;;8.50;4.95;;;6.20;85.50;;;;;;5033333;28;20116;-57
2021/04/17 06:51:28;;;;;;;10.90;5.28;;;6.30;84.90;;;;;;5031661;28;20385;-58
2021/04/17 06:53:55;;;;;;;8.52;4.75;;;6.10;86.00;;;;;;5032889;28;20116;-57
2021/04/17 06:56:24;;;;;;;11.40;4.55;;;6.30;85.30;;;;;;5032551;28;20033;-60
2021/04/17 06:58:50;;;;;;;6.68;4.68;;;6.40;84.80;;;;;;5031609;28;20025;-59
2021/04/17 07:01:15;;;;;;;10.90;4.45;;;6.40;85.10;;;;;;5033874;28;20180;-59
2021/04/17 07:03:41;;;;;;;8.15;4.65;;;6.40;85.30;;;;;;5032052;28;20029;-61
2021/04/17 07:06:07;;;;;;;10.32;5.28;;;6.40;84.90;;;;;;5033503;28;20045;-57
2021/04/17 07:08:32;;;;;;;9.50;4.53;;;6.50;85.50;;;;;;5031610;28;20123;-57
2021/04/17 07:10:59;;;;;;;8.68;4.70;;;6.40;85.10;;;;;;5032213;28;20561;-60
2021/04/17 07:13:26;;;;;;;10.30;5.28;;;6.10;86.50;;;;;;5030789;28;20425;-55
2021/04/17 07:15:53;;;;;;;8.07;4.63;;;6.10;86.10;;;;;;5032636;28;20095;-59
2021/04/17 07:18:29;;;;;;;8.80;4.88;;;6.30;86.00;;;;;;5029649;28;20036;-55
2021/04/17 07:20:56;;;;;;;9.50;5.13;;;6.30;85.60;;;;;;5034563;28;20458;-58
2021/04/17 07:23:31;;;;;;;7.43;4.72;;;6.30;86.20;;;;;;5029518;28;20052;-59
2021/04/17 07:26:14;;;;;;;7.88;4.97;;;6.20;86.30;;;;;;5025439;28;20486;-59
2021/04/17 07:28:54;;;;;;;9.02;4.38;;;6.40;85.70;;;;;;5015746;28;20037;-60
2021/04/17 07:31:20;;;;;;;8.23;4.40;;;6.20;86.30;;;;;;5033578;28;20445;-56
2021/04/17 07:33:45;;;;;;;10.35;5.65;;;6.40;86.10;;;;;;5031870;28;20033;-58
2021/04/17 07:36:11;;;;;;;12.00;4.88;;;6.50;86.00;;;;;;5037755;28;20346;-56
2021/04/17 07:38:38;;;;;;;12.43;5.10;;;6.50;85.70;;;;;;5012243;28;20030;-57
2021/04/17 07:41:11;;;;;;;11.25;5.35;;;6.50;85.40;;;;;;5039306;28;20486;-59
2021/04/17 07:43:50;;;;;;;7.60;5.32;;;6.50;85.70;;;;;;5030686;28;20026;-58
2021/04/17 07:46:20;;;;;;;12.43;5.63;;;6.50;85.90;;;;;;5014308;28;20026;-58
2021/04/17 07:48:46;;;;;;;8.55;5.00;;;6.50;85.30;;;;;;5049067;28;20056;-57
2021/04/17 07:51:12;;;;;;;9.60;5.32;;;6.50;86.80;;;;;;5013076;28;20490;-56
2021/04/17 07:53:40;;;;;;;10.60;5.50;;;6.60;86.80;;;;;;5023460;28;20037;-51
2021/04/17 07:56:32;;;;;;;12.15;5.20;;;6.70;86.10;;;;;;5015508;28;20117;-54
2021/04/17 07:59:04;;;;;;;9.82;4.90;;;7.00;85.70;;;;;;5029679;28;20041;-59
2021/04/17 08:01:32;;;;;;;11.02;5.53;;;7.40;83.40;;;;;;5026869;28;20037;-64
2021/04/17 08:04:00;;;;;;;6.60;4.57;;;7.50;82.50;;;;;;5017260;28;20052;-58
2021/04/17 08:06:26;;;;;;;9.02;4.70;;;7.20;83.00;;;;;;5037516;28;20480;-57
2021/04/17 08:08:58;;;;;;;8.43;4.50;;;7.10;83.00;;;;;;5048293;28;20033;-57
2021/04/17 08:11:25;;;;;;;8.07;5.15;;;7.10;83.20;;;;;;5033541;28;20513;-59
2021/04/17 08:13:52;;;;;;;9.48;4.72;;;6.90;83.60;;;;;;5032976;28;20064;-57
2021/04/17 08:16:18;;;;;;;6.00;3.85;;;6.90;83.60;;;;;;5022045;28;20035;-59
2021/04/17 08:18:45;;;;;;;6.40;3.90;;;7.10;81.30;;;;;;5029456;28;20041;-56
2021/04/17 08:21:13;;;;;;;7.50;4.03;;;7.30;81.30;;;;;;5033149;28;20052;-55
2021/04/17 08:23:43;;;;;;;8.40;4.57;;;7.30;80.00;;;;;;5042706;28;20052;-56
2021/04/17 08:26:10;;;;;;;8.50;4.82;;;7.40;80.10;;;;;;5036138;28;20034;-58
2021/04/17 08:29:02;;;;;;;9.85;5.15;;;7.50;79.70;;;;;;5033718;28;20126;-57
2021/04/17 08:31:33;;;;;;;6.53;4.32;;;7.40;79.40;;;;;;5034277;28;20124;-57
2021/04/17 08:34:15;;;;;;;8.82;4.47;;;7.30;79.60;;;;;;5033611;28;20033;-57
2021/04/17 08:36:49;;;;;;;14.63;4.95;;;7.20;80.40;;;;;;5035869;28;20562;-55
2021/04/17 08:39:33;;;;;;;6.60;4.40;;;7.20;79.70;;;;;;5037307;28;20049;-56
2021/04/17 08:42:00;;;;;;;11.45;4.35;;;7.30;79.20;;;;;;5034179;28;20072;-57
2021/04/17 08:44:40;;;;;;;8.23;3.92;;;7.40;79.30;;;;;;5035647;28;20029;-55
2021/04/17 08:47:09;;;;;;;7.88;4.63;;;7.40;78.60;;;;;;5033820;28;20041;-51
2021/04/17 08:49:40;;;;;;;9.13;4.10;;;7.30;79.10;;;;;;5034600;28;20477;-56
2021/04/17 08:52:08;;;;;;;6.60;4.28;;;7.30;79.60;;;;;;5019715;28;20428;-57
2021/04/17 08:54:34;;;;;;;7.90;4.65;;;7.30;79.70;;;;;;5034444;28;20034;-57
2021/04/17 08:57:22;;;;;;;7.43;4.57;;;7.50;79.50;;;;;;5034309;28;20021;-56
2021/04/17 08:59:57;;;;;;;7.75;5.10;;;7.60;79.20;;;;;;5036014;28;20041;-57
2021/04/17 09:02:24;;;;;;;8.20;4.53;;;7.70;78.50;;;;;;5024267;28;20030;-54
2021/04/17 09:05:09;;;;;;;6.78;4.68;;;7.70;78.80;;;;;;5021318;28;20044;-59
2021/04/17 09:07:40;;;;;;;;;;;7.80;78.60;;;;;;5025329;28;20033;-57
2021/04/17 09:10:30;;;;;;;11.55;4.72;;;7.80;78.80;;;;;;5022761;28;20268;-58
2021/04/17 09:13:16;;;;;;;8.35;5.45;;;7.70;79.40;;;;;;5018531;28;20493;-56
2021/04/17 09:15:57;;;;;;;8.18;4.93;;;7.70;79.30;;;;;;5039338;28;20033;-57
2021/04/17 09:18:34;;;;;;;9.82;5.28;;;7.70;78.90;;;;;;5015623;28;20369;-54
2021/04/17 09:21:06;;;;;;;8.07;5.15;;;7.90;79.10;;;;;;5031450;28;20041;-58
2021/04/17 09:23:36;;;;;;;6.43;4.05;;;7.90;77.60;;;;;;5021657;28;20033;-58
2021/04/17 09:26:02;;;;;;;7.90;4.28;;;7.90;76.60;;;;;;5029425;28;20033;-58
2021/04/17 09:28:36;;;;;;;9.43;5.07;;;7.90;75.30;;;;;;5014045;28;20394;-58
2021/04/17 09:31:03;;;;;;;9.35;4.82;;;7.90;75.40;;;;;;5021568;28;20048;-57
2021/04/17 09:33:30;;;;;;;8.07;4.32;;;7.90;75.70;;;;;;5023521;28;20037;-57
2021/04/17 09:35:55;;;;;;;9.43;4.65;;;7.90;75.10;;;;;;5019208;28;20041;-59
2021/04/17 09:38:24;;;;;;;8.60;4.95;;;7.80;75.70;;;;;;5036251;28;20497;-57
2021/04/17 09:40:54;;;;;;;6.72;4.30;;;7.80;75.90;;;;;;5032638;28;20049;-56
2021/04/17 09:43:21;;;;;;;10.63;4.93;;;7.80;75.50;;;;;;5016155;28;20029;-58
2021/04/17 09:45:50;;;;;;;8.20;5.28;;;7.80;75.70;;;;;;5040992;28;20135;-56
2021/04/17 09:48:16;;;;;;;8.70;4.75;;;7.80;76.10;;;;;;5031125;28;20032;-58
2021/04/17 09:50:41;;;;;;;10.38;5.50;;;7.90;76.10;;;;;;5040126;28;20029;-58
2021/04/17 09:53:13;;;;;;;9.85;5.07;;;8.00;76.30;;;;;;5034807;28;20029;-58
2021/04/17 09:55:51;;;;;;;11.82;5.53;;;8.00;76.30;;;;;;5026578;28;20030;-54
2021/04/17 09:58:25;;;;;;;8.13;4.95;;;8.10;75.90;;;;;;5037609;28;20044;-56
2021/04/17 10:00:51;;;;;;;7.10;4.70;;;8.00;75.80;;;;;;5046379;28;20040;-56
2021/04/17 10:03:31;;;;;;;7.43;4.22;;;7.90;76.00;;;;;;5041949;28;20052;-56
2021/04/17 10:05:58;;;;;;;14.32;5.90;;;8.00;76.10;;;;;;5038606;28;20118;-57
2021/04/17 10:08:32;;;;;;;8.43;4.72;;;7.80;76.60;;;;;;5025463;28;20085;-57
2021/04/17 10:10:58;;;;;;;8.13;5.05;;;7.80;76.90;;;;;;5032066;28;20391;-58
2021/04/17 10:13:37;;;;;;;9.90;5.03;;;7.90;77.10;;;;;;5051074;28;20167;-58
2021/04/17 10:16:03;;;;;;;7.80;4.90;;;8.10;76.20;;;;;;5032406;28;20022;-58
2021/04/17 10:18:29;;;;;;;10.35;4.72;;;8.00;76.70;;;;;;5028714;28;20131;-58
2021/04/17 10:20:55;;;;;;;9.52;5.05;;;8.20;76.30;;;;;;5031872;28;20065;-59
2021/04/17 10:23:21;;;;;;;10.57;5.10;;;8.10;76.00;;;;;;5031870;28;20053;-58
2021/04/17 10:25:47;;;;;;;10.20;5.38;;;8.00;76.00;;;;;;5026770;28;20110;-55
2021/04/17 10:28:24;;;;;;;9.80;5.03;;;7.90;76.40;;;;;;5035582;28;20056;-59
2021/04/17 10:30:55;;;;;;;11.15;5.53;;;8.00;76.60;;;;;;5023828;28;20032;-56
2021/04/17 10:33:23;;;;;;;9.48;5.25;;;8.10;76.00;;;;;;5039075;28;20546;-58
2021/04/17 10:35:51;;;;;;;8.25;4.68;;;8.10;76.00;;;;;;5026947;28;20025;-60
2021/04/17 10:38:26;;;;;;;9.75;5.40;;;8.10;75.20;;;;;;5033192;28;20034;-59
2021/04/17 10:40:54;;;;;;;10.18;5.35;;;7.80;76.40;;;;;;5050045;28;20025;-58
2021/04/17 10:43:20;;;;;;;9.07;4.82;;;8.10;75.90;;;;;;5043107;28;20028;-58
2021/04/17 10:45:47;;;;;;;9.02;4.85;;;8.10;76.00;;;;;;5037177;28;20048;-59
2021/04/17 10:48:19;;;;;;;8.30;5.32;;;8.00;76.40;;;;;;5023723;28;20026;-57
2021/04/17 10:51:06;;;;;;;12.27;5.60;;;7.90;77.00;;;;;;5043224;28;20041;-58
2021/04/17 10:53:50;;;;;;;10.05;5.70;;;8.10;76.70;;;;;;5042486;28;20029;-58
2021/04/17 10:56:18;;;;;;;10.13;5.63;;;8.20;76.00;;;;;;5031028;28;20038;-60
2021/04/17 10:58:45;;;;;;;10.48;5.60;;;8.10;76.20;;;;;;5059657;28;20098;-59
2021/04/17 11:01:13;;;;;;;9.80;6.13;;;8.20;75.90;;;;;;5034207;28;20091;-61
2021/04/17 11:03:44;;;;;;;10.63;5.47;;;8.20;75.90;;;;;;5050184;28;20131;-58
2021/04/17 11:06:19;;;;;;;8.23;5.22;;;8.20;76.60;;;;;;5029272;28;20888;-58
2021/04/17 11:08:47;;;;;;;10.32;6.00;;;8.20;76.40;;;;;;5034641;28;20120;-57
2021/04/17 11:11:15;;;;;;;8.63;5.72;;;8.10;76.40;;;;;;5027643;28;20026;-58
2021/04/17 11:13:43;;;;;;;12.60;6.80;;;8.10;76.50;;;;;;5042905;28;20041;-56
2021/04/17 11:16:11;;;;;;;12.75;6.18;;;8.10;76.40;;;;;;5028756;28;20034;-58
2021/04/17 11:18:42;;;;;;;10.25;5.68;;;8.10;76.70;;;;;;5031915;28;20025;-58
2021/04/17 11:21:15;;;;;;;9.60;5.95;;;8.00;77.00;;;;;;5027822;28;20047;-59
2021/04/17 11:23:53;;;;;;;14.65;6.50;;;8.00;77.10;;;;;;5018312;28;20034;-57
2021/04/17 11:26:23;;;;;;;12.88;6.20;;;8.30;76.60;;;;;;5032970;28;20053;-58
2021/04/17 11:29:00;;;;;;;8.63;5.28;;;8.20;76.50;;;;;;5029930;28;20021;-56
2021/04/17 11:31:28;;;;;;;11.15;6.10;;;8.40;76.00;;;;;;5032435;28;20028;-56
2021/04/17 11:33:56;;;;;;;8.50;5.40;;;8.70;75.30;;;;;;5032551;28;20531;-59
2021/04/17 11:36:24;;;;;;;9.30;4.82;;;8.60;71.20;;;;;;5032436;28;20501;-57
2021/04/17 11:38:51;;;;;;;10.55;5.60;;;8.60;71.50;;;;;;5036431;28;20521;-59
2021/04/17 11:41:17;;;;;;;7.35;4.85;;;8.60;71.60;;;;;;5032563;28;20028;-57
2021/04/17 11:43:42;;;;;;;7.97;4.93;;;8.50;70.90;;;;;;5027988;28;20112;-57
2021/04/17 11:46:13;;;;;;;9.38;5.03;;;8.60;71.00;;;;;;5032624;28;20125;-57
2021/04/17 11:48:40;;;;;;;8.52;5.15;;;8.70;71.70;;;;;;5019458;28;20025;-56
2021/04/17 11:51:06;;;;;;;7.50;5.38;;;8.60;71.20;;;;;;5040339;28;20028;-56
2021/04/17 11:53:32;;;;;;;9.13;5.50;;;8.80;71.50;;;;;;5032690;28;20512;-54
2021/04/17 11:55:57;;;;;;;10.98;5.88;;;8.90;71.80;;;;;;5047598;28;20045;-57
2021/04/17 11:58:23;;;;;;;8.13;5.07;;;9.20;71.30;;;;;;5018308;28;20038;-55
2021/04/17 12:00:49;;;;;;;11.23;5.95;;;9.20;70.70;;;;;;5042388;28;20041;-58
2021/04/17 12:03:20;;;;;;;10.48;5.85;;;9.20;70.90;;;;;;5028817;28;20041;-61
2021/04/17 12:05:47;;;;;;;8.45;4.72;;;9.30;70.30;;;;;;5027758;28;20553;-58
2021/04/17 12:08:12;;;;;;;9.50;5.47;;;9.30;70.80;;;;;;5031038;28;20037;-54
2021/04/17 12:10:38;;;;;;;8.27;5.45;;;9.50;70.70;;;;;;5030270;28;20036;-56
2021/04/17 12:13:04;;;;;;;10.30;5.38;;;9.30;70.70;;;;;;5033271;28;20101;-59
2021/04/17 12:15:29;;;;;;;9.68;5.88;;;9.30;70.50;;;;;;5047046;28;20051;-60
2021/04/17 12:17:55;;;;;;;11.45;6.32;;;9.20;70.10;;;;;;5036572;28;20046;-59
2021/04/17 12:20:20;;;;;;;8.73;6.18;;;9.20;70.90;;;;;;5033535;28;20138;-55
2021/04/17 12:22:46;;;;;;;9.48;5.57;;;8.90;71.70;;;;;;5022644;28;20158;-56
2021/04/17 12:25:12;;;;;;;10.10;5.35;;;8.80;72.30;;;;;;5050065;28;20045;-57
2021/04/17 12:27:38;;;;;;;13.40;6.00;;;8.80;72.30;;;;;;5035935;28;20353;-54
2021/04/17 12:30:06;;;;;;;9.63;5.03;;;8.90;72.00;;;;;;5034121;28;20030;-59
2021/04/17 12:32:32;;;;;;;11.10;5.47;;;8.90;72.30;;;;;;5050294;28;20106;-56
2021/04/17 12:34:57;;;;;;;7.35;5.60;;;9.10;71.80;;;;;;5039321;28;20041;-57
2021/04/17 12:37:23;;;;;;;9.85;5.65;;;9.40;71.40;;;;;;5030366;28;20047;-56
2021/04/17 12:39:49;;;;;;;8.02;5.40;;;9.30;71.40;;;;;;5020451;28;20034;-57
2021/04/17 12:42:15;;;;;;;7.95;5.25;;;9.30;71.00;;;;;;5025611;28;20400;-58
2021/04/17 12:44:41;;;;;;;12.68;5.75;;;9.30;70.40;;;;;;5055571;28;20041;-59
2021/04/17 12:47:09;;;;;;;11.07;5.50;;;9.50;70.10;;;;;;5041440;28;20021;-56
2021/04/17 12:49:35;;;;;;;9.70;5.30;;;9.30;69.70;;;;;;5024169;28;20042;-56
2021/04/17 12:52:01;;;;;;;10.00;5.25;;;9.40;69.90;;;;;;5020198;28;20038;-58
2021/04/17 12:54:26;;;;;;;7.18;4.90;;;9.60;69.70;;;;;;5032804;28;20034;-58
2021/04/17 12:56:52;;;;;;;11.57;5.78;;;9.70;69.40;;;;;;5047239;28;20485;-57
2021/04/17 12:59:18;;;;;;;11.10;5.60;;;9.70;69.50;;;;;;5040797;28;20124;-58
2021/04/17 13:01:45;;;;;;;7.40;5.22;;;9.70;69.90;;;;;;5027393;28;20045;-58